Terminal Aerodrome Forecast
Issued by NWS

Home | Current Version | Previous Version | Text Only | Print | Product List | Glossary On
Versions: 1 2 3 4 5 6 7 8 9 10 11 12 13 14
405
FTUS42 TJSJ 272325
TAFIST
TAF
TIST 272325Z 2800/2824 12008KT P6SM FEW030 BKN090
     FM281300 13012KT P6SM VCSH SCT030 BKN080
     FM282330 10007KT P6SM VCSH FEW030 BKN080=

USA.gov is the U.S. government's official web portal to all federal, state and local government web resources and services.